sensor_id;sensor_type;location;lat;lon;timestamp;pressure;altitude;pressure_sealevel;temperature;humidity
56014;BME280;41893;55.868;37.632;2022-09-17T00:00:40;98409.59;;;12.47;100.00
56014;BME280;41893;55.868;37.632;2022-09-17T00:03:07;98407.13;;;12.37;100.00
56014;BME280;41893;55.868;37.632;2022-09-17T00:05:35;98416.69;;;12.35;100.00
56014;BME280;41893;55.868;37.632;2022-09-17T00:08:04;98407.03;;;12.29;100.00
56014;BME280;41893;55.868;37.632;2022-09-17T00:10:34;98398.88;;;12.29;100.00
56014;BME280;41893;55.868;37.632;2022-09-17T00:13:02;98408.44;;;12.26;100.00
56014;BME280;41893;55.868;37.632;2022-09-17T00:15:28;98409.69;;;12.20;100.00
56014;BME280;41893;55.868;37.632;2022-09-17T00:17:55;98414.25;;;12.11;100.00
56014;BME280;41893;55.868;37.632;2022-09-17T00:20:26;98418.09;;;11.96;100.00
56014;BME280;41893;55.868;37.632;2022-09-17T00:22:53;98422.72;;;11.96;100.00
56014;BME280;41893;55.868;37.632;2022-09-17T00:25:19;98407.91;;;11.88;100.00
56014;BME280;41893;55.868;37.632;2022-09-17T00:27:45;98429.56;;;11.93;100.00
56014;BME280;41893;55.868;37.632;2022-09-17T00:30:12;98433.69;;;12.04;100.00
56014;BME280;41893;55.868;37.632;2022-09-17T00:32:38;98431.06;;;11.99;100.00
56014;BME280;41893;55.868;37.632;2022-09-17T00:35:04;98423.63;;;11.91;100.00
56014;BME280;41893;55.868;37.632;2022-09-17T00:37:30;98431.78;;;12.05;100.00
56014;BME280;41893;55.868;37.632;2022-09-17T00:39:56;98433.59;;;11.96;100.00
56014;BME280;41893;55.868;37.632;2022-09-17T00:42:22;98437.00;;;12.01;100.00
56014;BME280;41893;55.868;37.632;2022-09-17T00:44:50;98440.75;;;11.91;100.00
56014;BME280;41893;55.868;37.632;2022-09-17T00:47:26;98443.25;;;11.88;100.00
56014;BME280;41893;55.868;37.632;2022-09-17T00:49:59;98445.47;;;12.00;100.00
56014;BME280;41893;55.868;37.632;2022-09-17T00:52:31;98441.84;;;12.04;100.00
56014;BME280;41893;55.868;37.632;2022-09-17T00:55:02;98439.44;;;11.89;100.00
56014;BME280;41893;55.868;37.632;2022-09-17T00:57:30;98427.47;;;11.76;100.00
56014;BME280;41893;55.868;37.632;2022-09-17T00:59:56;98439.44;;;11.89;100.00
56014;BME280;41893;55.868;37.632;2022-09-17T01:02:22;98437.81;;;12.02;100.00
56014;BME280;41893;55.868;37.632;2022-09-17T01:04:49;98434.81;;;11.89;100.00
56014;BME280;41893;55.868;37.632;2022-09-17T01:07:38;98442.56;;;11.82;100.00
56014;BME280;41893;55.868;37.632;2022-09-17T01:10:16;98448.69;;;11.74;100.00
56014;BME280;41893;55.868;37.632;2022-09-17T01:13:01;98438.63;;;11.75;100.00
56014;BME280;41893;55.868;37.632;2022-09-17T01:15:45;98442.53;;;11.69;100.00
56014;BME280;41893;55.868;37.632;2022-09-17T01:32:07;98458.53;;;11.29;100.00
56014;BME280;41893;55.868;37.632;2022-09-17T01:34:44;98444.66;;;11.31;100.00
56014;BME280;41893;55.868;37.632;2022-09-17T01:37:22;98459.13;;;11.26;100.00
56014;BME280;41893;55.868;37.632;2022-09-17T01:40:06;98441.59;;;11.18;100.00
56014;BME280;41893;55.868;37.632;2022-09-17T01:47:41;98450.25;;;11.20;100.00
56014;BME280;41893;55.868;37.632;2022-09-17T01:50:12;98461.75;;;11.31;100.00
56014;BME280;41893;55.868;37.632;2022-09-17T01:52:43;98456.00;;;11.46;100.00
56014;BME280;41893;55.868;37.632;2022-09-17T01:55:14;98461.03;;;11.25;100.00
56014;BME280;41893;55.868;37.632;2022-09-17T01:57:52;98466.16;;;11.27;100.00
56014;BME280;41893;55.868;37.632;2022-09-17T02:00:20;98460.00;;;11.08;100.00
56014;BME280;41893;55.868;37.632;2022-09-17T02:03:03;98475.56;;;11.16;100.00
56014;BME280;41893;55.868;37.632;2022-09-17T02:05:41;98475.25;;;11.04;100.00
56014;BME280;41893;55.868;37.632;2022-09-17T02:08:25;98480.91;;;11.07;100.00
56014;BME280;41893;55.868;37.632;2022-09-17T02:11:02;98487.06;;;11.13;100.00
56014;BME280;41893;55.868;37.632;2022-09-17T02:13:59;98466.00;;;11.05;100.00
56014;BME280;41893;55.868;37.632;2022-09-17T02:16:31;98473.13;;;11.01;100.00
56014;BME280;41893;55.868;37.632;2022-09-17T02:19:04;98480.75;;;10.99;100.00
56014;BME280;41893;55.868;37.632;2022-09-17T02:24:41;98475.03;;;11.00;100.00
56014;BME280;41893;55.868;37.632;2022-09-17T02:29:42;98476.13;;;10.99;100.00
56014;BME280;41893;55.868;37.632;2022-09-17T02:32:10;98474.31;;;10.95;100.00
56014;BME280;41893;55.868;37.632;2022-09-17T02:34:37;98475.81;;;10.87;100.00
56014;BME280;41893;55.868;37.632;2022-09-17T02:37:04;98477.81;;;10.95;100.00
56014;BME280;41893;55.868;37.632;2022-09-17T02:39:30;98480.09;;;11.07;100.00
56014;BME280;41893;55.868;37.632;2022-09-17T02:48:06;98496.19;;;10.84;100.00
56014;BME280;41893;55.868;37.632;2022-09-17T02:56:33;98495.63;;;10.50;100.00
56014;BME280;41893;55.868;37.632;2022-09-17T03:01:44;98494.97;;;10.58;100.00
56014;BME280;41893;55.868;37.632;2022-09-17T03:04:12;98488.22;;;10.55;100.00
56014;BME280;41893;55.868;37.632;2022-09-17T03:06:41;98487.56;;;10.64;100.00
56014;BME280;41893;55.868;37.632;2022-09-17T03:09:08;98495.25;;;10.56;100.00
56014;BME280;41893;55.868;37.632;2022-09-17T03:11:35;98499.06;;;10.55;100.00
56014;BME280;41893;55.868;37.632;2022-09-17T03:14:00;98492.25;;;10.58;100.00
56014;BME280;41893;55.868;37.632;2022-09-17T03:16:26;98497.59;;;10.44;100.00
56014;BME280;41893;55.868;37.632;2022-09-17T03:18:52;98499.16;;;10.50;100.00
56014;BME280;41893;55.868;37.632;2022-09-17T03:21:18;98497.97;;;10.56;100.00
56014;BME280;41893;55.868;37.632;2022-09-17T03:23:45;98501.22;;;10.59;100.00
56014;BME280;41893;55.868;37.632;2022-09-17T03:26:11;98514.09;;;10.48;100.00
56014;BME280;41893;55.868;37.632;2022-09-17T03:28:37;98510.06;;;10.45;100.00
56014;BME280;41893;55.868;37.632;2022-09-17T03:31:03;98503.03;;;10.44;100.00
56014;BME280;41893;55.868;37.632;2022-09-17T03:33:31;98515.47;;;10.45;100.00
56014;BME280;41893;55.868;37.632;2022-09-17T03:35:57;98512.41;;;10.33;100.00
56014;BME280;41893;55.868;37.632;2022-09-17T03:38:22;98505.09;;;10.34;100.00
56014;BME280;41893;55.868;37.632;2022-09-17T03:40:59;98514.69;;;10.45;100.00
56014;BME280;41893;55.868;37.632;2022-09-17T03:43:25;98512.19;;;10.48;100.00
56014;BME280;41893;55.868;37.632;2022-09-17T03:45:51;98519.75;;;10.33;100.00
56014;BME280;41893;55.868;37.632;2022-09-17T03:48:17;98519.81;;;10.46;100.00
56014;BME280;41893;55.868;37.632;2022-09-17T03:50:42;98523.31;;;10.47;100.00
56014;BME280;41893;55.868;37.632;2022-09-17T03:53:08;98522.59;;;10.41;100.00
56014;BME280;41893;55.868;37.632;2022-09-17T03:55:37;98514.91;;;10.30;100.00
56014;BME280;41893;55.868;37.632;2022-09-17T03:58:03;98533.44;;;10.41;100.00
56014;BME280;41893;55.868;37.632;2022-09-17T04:00:28;98534.63;;;10.35;100.00
56014;BME280;41893;55.868;37.632;2022-09-17T04:02:54;98536.00;;;10.33;100.00
56014;BME280;41893;55.868;37.632;2022-09-17T04:05:20;98526.25;;;10.32;100.00
56014;BME280;41893;55.868;37.632;2022-09-17T04:07:46;98540.47;;;10.18;100.00
56014;BME280;41893;55.868;37.632;2022-09-17T04:10:11;98546.09;;;10.27;100.00
56014;BME280;41893;55.868;37.632;2022-09-17T04:12:38;98517.47;;;10.16;100.00
56014;BME280;41893;55.868;37.632;2022-09-17T04:15:04;98546.38;;;10.26;100.00
56014;BME280;41893;55.868;37.632;2022-09-17T04:17:30;98544.47;;;10.26;100.00
56014;BME280;41893;55.868;37.632;2022-09-17T04:19:55;98549.31;;;10.29;100.00
56014;BME280;41893;55.868;37.632;2022-09-17T04:22:21;98545.75;;;10.34;100.00
56014;BME280;41893;55.868;37.632;2022-09-17T04:24:47;98535.72;;;10.34;100.00
56014;BME280;41893;55.868;37.632;2022-09-17T04:27:13;98538.78;;;10.46;100.00
56014;BME280;41893;55.868;37.632;2022-09-17T04:29:39;98541.78;;;10.45;100.00
56014;BME280;41893;55.868;37.632;2022-09-17T04:32:04;98543.91;;;10.48;100.00
56014;BME280;41893;55.868;37.632;2022-09-17T04:34:30;98550.59;;;10.55;100.00
56014;BME280;41893;55.868;37.632;2022-09-17T04:36:57;98552.13;;;10.43;100.00
56014;BME280;41893;55.868;37.632;2022-09-17T04:39:23;98558.50;;;10.52;100.00
56014;BME280;41893;55.868;37.632;2022-09-17T04:41:49;98545.47;;;10.35;100.00
56014;BME280;41893;55.868;37.632;2022-09-17T04:44:14;98540.84;;;10.36;100.00
56014;BME280;41893;55.868;37.632;2022-09-17T04:46:40;98555.34;;;10.45;100.00
56014;BME280;41893;55.868;37.632;2022-09-17T04:49:06;98561.91;;;10.63;100.00
56014;BME280;41893;55.868;37.632;2022-09-17T04:51:33;98553.25;;;10.61;100.00
56014;BME280;41893;55.868;37.632;2022-09-17T04:53:58;98556.25;;;10.59;100.00
56014;BME280;41893;55.868;37.632;2022-09-17T04:56:24;98554.88;;;10.62;100.00
56014;BME280;41893;55.868;37.632;2022-09-17T04:58:50;98539.53;;;10.71;100.00
56014;BME280;41893;55.868;37.632;2022-09-17T05:01:16;98557.88;;;10.60;100.00
56014;BME280;41893;55.868;37.632;2022-09-17T05:03:44;98565.50;;;10.77;100.00
56014;BME280;41893;55.868;37.632;2022-09-17T05:06:10;98570.25;;;10.66;100.00
56014;BME280;41893;55.868;37.632;2022-09-17T05:08:35;98563.66;;;10.72;100.00
56014;BME280;41893;55.868;37.632;2022-09-17T05:11:02;98564.22;;;10.69;100.00
56014;BME280;41893;55.868;37.632;2022-09-17T05:13:28;98561.53;;;10.88;100.00
56014;BME280;41893;55.868;37.632;2022-09-17T05:15:54;98566.81;;;10.79;100.00
56014;BME280;41893;55.868;37.632;2022-09-17T05:18:24;98573.28;;;10.83;100.00
56014;BME280;41893;55.868;37.632;2022-09-17T05:20:51;98558.59;;;11.03;100.00
56014;BME280;41893;55.868;37.632;2022-09-17T05:23:17;98572.41;;;11.20;100.00
56014;BME280;41893;55.868;37.632;2022-09-17T05:25:42;98562.09;;;11.04;100.00
56014;BME280;41893;55.868;37.632;2022-09-17T05:28:08;98573.19;;;11.07;100.00
56014;BME280;41893;55.868;37.632;2022-09-17T05:30:34;98569.00;;;10.96;100.00
56014;BME280;41893;55.868;37.632;2022-09-17T05:33:02;98556.91;;;11.07;100.00
56014;BME280;41893;55.868;37.632;2022-09-17T05:35:28;98561.00;;;11.05;100.00
56014;BME280;41893;55.868;37.632;2022-09-17T05:38:03;98572.03;;;11.27;100.00
56014;BME280;41893;55.868;37.632;2022-09-17T05:40:30;98564.75;;;11.41;100.00
56014;BME280;41893;55.868;37.632;2022-09-17T05:42:58;98560.53;;;11.49;100.00
56014;BME280;41893;55.868;37.632;2022-09-17T05:45:24;98565.75;;;11.45;100.00
56014;BME280;41893;55.868;37.632;2022-09-17T05:47:55;98566.78;;;11.49;100.00
56014;BME280;41893;55.868;37.632;2022-09-17T05:50:21;98548.56;;;11.36;100.00
56014;BME280;41893;55.868;37.632;2022-09-17T05:52:47;98564.56;;;11.51;100.00
56014;BME280;41893;55.868;37.632;2022-09-17T05:55:13;98570.69;;;11.89;100.00
56014;BME280;41893;55.868;37.632;2022-09-17T05:57:39;98571.31;;;12.00;100.00
56014;BME280;41893;55.868;37.632;2022-09-17T06:00:05;98570.31;;;11.96;100.00
56014;BME280;41893;55.868;37.632;2022-09-17T06:02:38;98563.38;;;12.04;100.00
56014;BME280;41893;55.868;37.632;2022-09-17T06:05:04;98581.88;;;12.15;100.00
56014;BME280;41893;55.868;37.632;2022-09-17T06:07:30;98571.13;;;12.10;100.00
56014;BME280;41893;55.868;37.632;2022-09-17T06:09:56;98584.53;;;12.34;100.00
56014;BME280;41893;55.868;37.632;2022-09-17T06:12:22;98552.97;;;12.19;100.00
56014;BME280;41893;55.868;37.632;2022-09-17T06:14:47;98578.03;;;12.57;100.00
56014;BME280;41893;55.868;37.632;2022-09-17T06:17:14;98581.22;;;12.73;100.00
56014;BME280;41893;55.868;37.632;2022-09-17T06:19:39;98580.72;;;12.85;100.00
56014;BME280;41893;55.868;37.632;2022-09-17T06:22:05;98584.03;;;12.82;100.00
56014;BME280;41893;55.868;37.632;2022-09-17T06:24:31;98587.31;;;12.92;100.00
56014;BME280;41893;55.868;37.632;2022-09-17T06:26:57;98587.44;;;12.87;100.00
56014;BME280;41893;55.868;37.632;2022-09-17T06:29:23;98584.56;;;13.06;100.00
56014;BME280;41893;55.868;37.632;2022-09-17T06:31:49;98587.66;;;13.13;100.00
56014;BME280;41893;55.868;37.632;2022-09-17T06:34:16;98582.81;;;13.24;100.00
56014;BME280;41893;55.868;37.632;2022-09-17T06:36:42;98593.97;;;13.00;100.00
56014;BME280;41893;55.868;37.632;2022-09-17T06:39:08;98579.00;;;12.75;100.00
56014;BME280;41893;55.868;37.632;2022-09-17T06:41:37;98577.91;;;12.76;100.00
56014;BME280;41893;55.868;37.632;2022-09-17T06:44:03;98597.25;;;12.75;100.00
56014;BME280;41893;55.868;37.632;2022-09-17T06:46:30;98584.06;;;12.68;100.00
56014;BME280;41893;55.868;37.632;2022-09-17T06:48:56;98589.53;;;12.90;100.00
56014;BME280;41893;55.868;37.632;2022-09-17T06:51:22;98592.34;;;12.99;100.00
56014;BME280;41893;55.868;37.632;2022-09-17T06:53:47;98598.16;;;13.20;100.00
56014;BME280;41893;55.868;37.632;2022-09-17T06:56:14;98592.53;;;13.03;100.00
56014;BME280;41893;55.868;37.632;2022-09-17T06:58:39;98588.38;;;13.19;100.00
56014;BME280;41893;55.868;37.632;2022-09-17T07:01:10;98578.47;;;13.23;100.00
56014;BME280;41893;55.868;37.632;2022-09-17T07:03:36;98583.44;;;13.43;100.00
56014;BME280;41893;55.868;37.632;2022-09-17T07:06:04;98588.50;;;13.58;100.00
56014;BME280;41893;55.868;37.632;2022-09-17T07:08:33;98594.28;;;13.57;100.00
56014;BME280;41893;55.868;37.632;2022-09-17T07:10:59;98595.56;;;13.59;100.00
56014;BME280;41893;55.868;37.632;2022-09-17T07:13:25;98602.16;;;13.67;100.00
56014;BME280;41893;55.868;37.632;2022-09-17T07:15:55;98598.09;;;13.78;100.00
56014;BME280;41893;55.868;37.632;2022-09-17T07:18:22;98599.72;;;13.57;100.00
56014;BME280;41893;55.868;37.632;2022-09-17T07:21:04;98603.34;;;14.06;100.00
56014;BME280;41893;55.868;37.632;2022-09-17T07:23:32;98606.03;;;13.97;100.00
56014;BME280;41893;55.868;37.632;2022-09-17T07:26:04;98605.94;;;13.80;100.00
56014;BME280;41893;55.868;37.632;2022-09-17T07:28:31;98602.97;;;13.68;100.00
56014;BME280;41893;55.868;37.632;2022-09-17T07:30:57;98601.81;;;13.38;100.00
56014;BME280;41893;55.868;37.632;2022-09-17T07:33:25;98627.81;;;13.66;100.00
56014;BME280;41893;55.868;37.632;2022-09-17T07:36:01;98608.00;;;13.74;100.00
56014;BME280;41893;55.868;37.632;2022-09-17T07:38:28;98610.56;;;14.02;100.00
56014;BME280;41893;55.868;37.632;2022-09-17T07:41:03;98636.91;;;14.15;100.00
56014;BME280;41893;55.868;37.632;2022-09-17T07:43:31;98611.03;;;13.73;100.00
56014;BME280;41893;55.868;37.632;2022-09-17T07:45:58;98602.03;;;13.72;100.00
56014;BME280;41893;55.868;37.632;2022-09-17T07:48:25;98615.56;;;13.77;100.00
56014;BME280;41893;55.868;37.632;2022-09-17T07:50:51;98627.19;;;13.69;100.00
56014;BME280;41893;55.868;37.632;2022-09-17T07:53:17;98624.84;;;13.76;100.00
56014;BME280;41893;55.868;37.632;2022-09-17T07:55:54;98628.91;;;13.87;100.00
56014;BME280;41893;55.868;37.632;2022-09-17T07:58:21;98598.31;;;13.68;100.00
56014;BME280;41893;55.868;37.632;2022-09-17T08:00:47;98626.19;;;13.87;100.00
56014;BME280;41893;55.868;37.632;2022-09-17T08:03:13;98629.06;;;13.82;100.00
56014;BME280;41893;55.868;37.632;2022-09-17T08:05:39;98613.09;;;13.98;100.00
56014;BME280;41893;55.868;37.632;2022-09-17T08:08:05;98631.50;;;14.54;100.00
56014;BME280;41893;55.868;37.632;2022-09-17T08:10:31;98646.63;;;14.29;100.00
56014;BME280;41893;55.868;37.632;2022-09-17T08:12:58;98625.25;;;14.62;100.00
56014;BME280;41893;55.868;37.632;2022-09-17T08:15:24;98625.41;;;14.57;100.00
56014;BME280;41893;55.868;37.632;2022-09-17T08:17:51;98641.97;;;14.30;100.00
56014;BME280;41893;55.868;37.632;2022-09-17T08:20:17;98620.69;;;14.41;100.00
56014;BME280;41893;55.868;37.632;2022-09-17T08:22:43;98603.72;;;14.21;100.00
56014;BME280;41893;55.868;37.632;2022-09-17T08:25:09;98623.16;;;14.59;100.00
56014;BME280;41893;55.868;37.632;2022-09-17T08:27:36;98620.09;;;14.61;100.00
56014;BME280;41893;55.868;37.632;2022-09-17T08:30:07;98607.28;;;14.70;100.00
56014;BME280;41893;55.868;37.632;2022-09-17T08:32:33;98592.69;;;15.35;100.00
56014;BME280;41893;55.868;37.632;2022-09-17T08:34:59;98610.41;;;15.29;100.00
56014;BME280;41893;55.868;37.632;2022-09-17T08:37:26;98617.66;;;16.15;97.78
56014;BME280;41893;55.868;37.632;2022-09-17T08:39:54;98626.78;;;16.27;92.27
56014;BME280;41893;55.868;37.632;2022-09-17T08:42:48;98613.53;;;15.91;89.04
56014;BME280;41893;55.868;37.632;2022-09-17T08:45:16;98617.56;;;15.94;90.63
56014;BME280;41893;55.868;37.632;2022-09-17T08:47:45;98607.25;;;15.91;92.66
56014;BME280;41893;55.868;37.632;2022-09-17T08:50:15;98621.25;;;16.07;92.17
56014;BME280;41893;55.868;37.632;2022-09-17T09:00:50;98613.19;;;16.02;85.04
56014;BME280;41893;55.868;37.632;2022-09-17T09:06:23;98613.09;;;16.27;82.58
56014;BME280;41893;55.868;37.632;2022-09-17T09:09:00;98617.47;;;16.58;79.58
56014;BME280;41893;55.868;37.632;2022-09-17T09:11:31;98624.75;;;16.83;74.54
56014;BME280;41893;55.868;37.632;2022-09-17T09:14:17;98625.22;;;16.56;77.18
56014;BME280;41893;55.868;37.632;2022-09-17T09:16:44;98623.56;;;16.63;76.04
56014;BME280;41893;55.868;37.632;2022-09-17T09:19:31;98629.19;;;17.38;68.66
56014;BME280;41893;55.868;37.632;2022-09-17T09:22:02;98625.25;;;17.48;66.17
56014;BME280;41893;55.868;37.632;2022-09-17T09:27:22;98619.97;;;17.43;67.87
56014;BME280;41893;55.868;37.632;2022-09-17T09:35:22;98617.03;;;17.27;58.82
56014;BME280;41893;55.868;37.632;2022-09-17T09:38:11;98623.69;;;17.59;57.31
56014;BME280;41893;55.868;37.632;2022-09-17T09:46:06;98621.47;;;18.18;48.46
56014;BME280;41893;55.868;37.632;2022-09-17T09:49:07;98645.16;;;16.94;54.25
56014;BME280;41893;55.868;37.632;2022-09-17T09:52:38;98644.72;;;16.54;56.51
56014;BME280;41893;55.868;37.632;2022-09-17T09:55:39;98633.47;;;16.01;58.37
56014;BME280;41893;55.868;37.632;2022-09-17T09:57:48;98634.19;;;15.80;63.60
56014;BME280;41893;55.868;37.632;2022-09-17T10:00:36;98630.59;;;15.88;66.04
56014;BME280;41893;55.868;37.632;2022-09-17T10:05:37;98633.41;;;16.18;66.95
56014;BME280;41893;55.868;37.632;2022-09-17T10:08:13;98632.03;;;16.03;61.98
56014;BME280;41893;55.868;37.632;2022-09-17T10:13:29;98639.03;;;16.30;61.61
56014;BME280;41893;55.868;37.632;2022-09-17T10:15:55;98644.03;;;16.19;60.46
56014;BME280;41893;55.868;37.632;2022-09-17T10:18:23;98638.41;;;16.16;63.14
56014;BME280;41893;55.868;37.632;2022-09-17T10:20:59;98646.03;;;15.93;59.48
56014;BME280;41893;55.868;37.632;2022-09-17T10:23:29;98646.84;;;15.93;58.02
56014;BME280;41893;55.868;37.632;2022-09-17T10:25:58;98653.31;;;15.80;58.35
56014;BME280;41893;55.868;37.632;2022-09-17T10:28:31;98667.47;;;15.82;58.23
56014;BME280;41893;55.868;37.632;2022-09-17T10:30:59;98640.44;;;15.46;57.13
56014;BME280;41893;55.868;37.632;2022-09-17T10:33:32;98672.78;;;15.53;56.49
56014;BME280;41893;55.868;37.632;2022-09-17T10:36:05;98660.41;;;15.64;56.84
56014;BME280;41893;55.868;37.632;2022-09-17T10:38:36;98657.84;;;15.59;58.60
56014;BME280;41893;55.868;37.632;2022-09-17T10:41:18;98681.44;;;15.46;62.04
56014;BME280;41893;55.868;37.632;2022-09-17T10:43:46;98666.34;;;15.66;62.33
56014;BME280;41893;55.868;37.632;2022-09-17T10:46:15;98662.81;;;15.74;63.97
56014;BME280;41893;55.868;37.632;2022-09-17T10:48:56;98667.00;;;15.63;60.75
56014;BME280;41893;55.868;37.632;2022-09-17T10:51:23;98674.72;;;15.61;60.39
56014;BME280;41893;55.868;37.632;2022-09-17T10:54:06;98669.56;;;15.68;60.22
56014;BME280;41893;55.868;37.632;2022-09-17T10:56:34;98671.66;;;15.71;59.66
56014;BME280;41893;55.868;37.632;2022-09-17T11:02:37;98658.16;;;15.66;59.92
56014;BME280;41893;55.868;37.632;2022-09-17T11:14:38;98668.03;;;16.22;57.00
56014;BME280;41893;55.868;37.632;2022-09-17T11:20:53;98658.34;;;16.25;58.29
56014;BME280;41893;55.868;37.632;2022-09-17T11:29:24;98658.84;;;16.27;58.80
56014;BME280;41893;55.868;37.632;2022-09-17T11:40:24;98683.09;;;15.82;59.98
56014;BME280;41893;55.868;37.632;2022-09-17T11:46:08;98703.53;;;15.58;62.41
56014;BME280;41893;55.868;37.632;2022-09-17T11:48:48;98690.13;;;15.91;61.43
56014;BME280;41893;55.868;37.632;2022-09-17T11:56:52;98688.91;;;16.36;61.06
56014;BME280;41893;55.868;37.632;2022-09-17T11:59:23;98676.88;;;16.28;63.10
56014;BME280;41893;55.868;37.632;2022-09-17T12:02:22;98720.38;;;16.04;59.92
56014;BME280;41893;55.868;37.632;2022-09-17T12:10:47;98686.06;;;16.23;57.87
56014;BME280;41893;55.868;37.632;2022-09-17T12:16:35;98696.25;;;16.52;55.57
56014;BME280;41893;55.868;37.632;2022-09-17T12:19:27;98686.03;;;16.79;57.34
56014;BME280;41893;55.868;37.632;2022-09-17T12:24:40;98685.47;;;16.56;55.50
56014;BME280;41893;55.868;37.632;2022-09-17T12:30:30;98689.19;;;16.51;60.31
56014;BME280;41893;55.868;37.632;2022-09-17T12:36:08;98713.56;;;16.27;64.56
56014;BME280;41893;55.868;37.632;2022-09-17T12:44:17;98743.53;;;15.54;75.13
56014;BME280;41893;55.868;37.632;2022-09-17T12:47:18;98738.22;;;15.49;77.71
56014;BME280;41893;55.868;37.632;2022-09-17T12:56:01;98738.41;;;15.70;75.70
56014;BME280;41893;55.868;37.632;2022-09-17T12:58:54;98744.06;;;15.74;74.25
56014;BME280;41893;55.868;37.632;2022-09-17T13:04:14;98747.75;;;15.69;75.17
56014;BME280;41893;55.868;37.632;2022-09-17T13:18:20;98721.31;;;16.16;76.51
56014;BME280;41893;55.868;37.632;2022-09-17T13:21:12;98733.91;;;15.74;76.45
56014;BME280;41893;55.868;37.632;2022-09-17T13:23:42;98739.84;;;15.85;77.45
56014;BME280;41893;55.868;37.632;2022-09-17T13:26:11;98736.00;;;15.77;76.60
56014;BME280;41893;55.868;37.632;2022-09-17T13:28:49;98724.91;;;15.82;78.70
56014;BME280;41893;55.868;37.632;2022-09-17T13:31:21;98720.38;;;15.86;79.19
56014;BME280;41893;55.868;37.632;2022-09-17T13:36:34;98716.53;;;16.05;75.01
56014;BME280;41893;55.868;37.632;2022-09-17T13:39:01;98717.31;;;15.96;77.46
56014;BME280;41893;55.868;37.632;2022-09-17T13:41:29;98722.00;;;15.96;78.28
56014;BME280;41893;55.868;37.632;2022-09-17T13:43:57;98712.00;;;15.91;75.80
56014;BME280;41893;55.868;37.632;2022-09-17T13:46:24;98713.50;;;15.80;78.02
56014;BME280;41893;55.868;37.632;2022-09-17T13:48:56;98724.13;;;15.82;79.51
56014;BME280;41893;55.868;37.632;2022-09-17T13:54:03;98718.31;;;15.83;81.20
56014;BME280;41893;55.868;37.632;2022-09-17T13:56:39;98726.03;;;15.81;78.89
56014;BME280;41893;55.868;37.632;2022-09-17T13:59:14;98708.50;;;15.74;78.77
56014;BME280;41893;55.868;37.632;2022-09-17T14:01:55;98719.25;;;15.87;77.48
56014;BME280;41893;55.868;37.632;2022-09-17T14:04:45;98731.84;;;15.80;77.28
56014;BME280;41893;55.868;37.632;2022-09-17T14:09:55;98723.47;;;15.76;80.42
56014;BME280;41893;55.868;37.632;2022-09-17T14:17:56;98710.75;;;15.63;80.37
56014;BME280;41893;55.868;37.632;2022-09-17T14:20:23;98708.50;;;15.82;80.20
56014;BME280;41893;55.868;37.632;2022-09-17T14:22:56;98720.06;;;16.05;80.14
56014;BME280;41893;55.868;37.632;2022-09-17T14:25:33;98719.22;;;16.13;79.61
56014;BME280;41893;55.868;37.632;2022-09-17T14:28:17;98703.50;;;15.93;79.95
56014;BME280;41893;55.868;37.632;2022-09-17T14:30:47;98735.69;;;15.79;80.46
56014;BME280;41893;55.868;37.632;2022-09-17T14:33:15;98739.06;;;15.93;81.70
56014;BME280;41893;55.868;37.632;2022-09-17T14:35:48;98766.22;;;15.63;83.55
56014;BME280;41893;55.868;37.632;2022-09-17T14:43:47;98796.75;;;13.44;100.00
56014;BME280;41893;55.868;37.632;2022-09-17T14:46:23;98781.22;;;13.44;100.00
56014;BME280;41893;55.868;37.632;2022-09-17T14:48:52;98739.75;;;13.47;100.00
56014;BME280;41893;55.868;37.632;2022-09-17T14:53:45;98793.03;;;13.53;100.00
56014;BME280;41893;55.868;37.632;2022-09-17T14:56:17;98779.09;;;13.41;100.00
56014;BME280;41893;55.868;37.632;2022-09-17T14:58:51;98772.03;;;13.54;100.00
56014;BME280;41893;55.868;37.632;2022-09-17T15:01:27;98787.41;;;13.72;100.00
56014;BME280;41893;55.868;37.632;2022-09-17T15:04:29;98779.81;;;13.83;100.00
56014;BME280;41893;55.868;37.632;2022-09-17T15:07:08;98784.03;;;13.39;100.00
56014;BME280;41893;55.868;37.632;2022-09-17T15:09:34;98803.41;;;13.38;100.00
56014;BME280;41893;55.868;37.632;2022-09-17T15:12:01;98795.28;;;13.74;100.00
56014;BME280;41893;55.868;37.632;2022-09-17T15:14:30;98803.66;;;13.27;100.00
56014;BME280;41893;55.868;37.632;2022-09-17T15:16:58;98811.72;;;13.33;100.00
56014;BME280;41893;55.868;37.632;2022-09-17T15:22:01;98812.00;;;13.58;100.00
56014;BME280;41893;55.868;37.632;2022-09-17T15:24:42;98813.81;;;13.49;100.00
56014;BME280;41893;55.868;37.632;2022-09-17T15:29:50;98804.44;;;13.55;100.00
56014;BME280;41893;55.868;37.632;2022-09-17T15:32:18;98784.09;;;13.61;100.00
56014;BME280;41893;55.868;37.632;2022-09-17T15:34:43;98780.25;;;13.62;100.00
56014;BME280;41893;55.868;37.632;2022-09-17T15:37:18;98824.69;;;13.63;100.00
56014;BME280;41893;55.868;37.632;2022-09-17T15:39:49;98827.25;;;13.32;100.00
56014;BME280;41893;55.868;37.632;2022-09-17T15:42:28;98837.22;;;13.37;100.00
56014;BME280;41893;55.868;37.632;2022-09-17T15:45:27;98816.56;;;13.36;100.00
56014;BME280;41893;55.868;37.632;2022-09-17T15:47:58;98808.75;;;13.56;100.00
56014;BME280;41893;55.868;37.632;2022-09-17T15:50:28;98811.56;;;13.65;100.00
56014;BME280;41893;55.868;37.632;2022-09-17T15:55:40;98814.25;;;13.79;100.00
56014;BME280;41893;55.868;37.632;2022-09-17T15:58:28;98792.97;;;13.67;100.00
56014;BME280;41893;55.868;37.632;2022-09-17T16:08:53;98799.69;;;13.47;100.00
56014;BME280;41893;55.868;37.632;2022-09-17T16:11:23;98811.94;;;13.72;100.00